Terminal Aerodrome Forecast
Issued by NWS Wilmington, OH

Current Version | Previous Version | Graphics & Text | Print | Product List | Glossary On
Versions: 1 2 3 4 5 6 7 8 9 10 11 12 13 14 15 16 17 18 19 20 21 22 23 24 25 26
000
FTUS41 KILN 172340
TAFCMH
TAF
KCMH 172340Z 1800/1824 07004KT P6SM VCSH SCT060 OVC120
     FM180500 06007KT P6SM SCT015 OVC250
     FM181300 08010G18KT P6SM VCSH OVC025
     FM181800 08012G24KT P6SM -SHRA SCT008 OVC012
     FM182100 09013G24KT P6SM VCSH BKN008 OVC012=

USA.gov is the U.S. government's official web portal to all federal, state and local government web resources and services.